createdAt,value
2018-01-25T00:00:54.140Z,4.80
2018-01-25T00:03:22.363Z,4.60
2018-01-25T00:05:49.811Z,4.70
2018-01-25T00:08:17.256Z,4.60
2018-01-25T00:10:44.708Z,4.50
2018-01-25T00:13:12.152Z,4.40
2018-01-25T00:15:39.597Z,4.30
2018-01-25T00:18:07.815Z,4.20
2018-01-25T00:20:35.255Z,4.20
2018-01-25T00:23:02.708Z,4.10
2018-01-25T00:25:30.152Z,4.10
2018-01-25T00:27:57.600Z,4.10
2018-01-25T00:30:25.042Z,4.20
2018-01-25T00:32:53.248Z,4.60
2018-01-25T00:35:20.697Z,4.60
2018-01-25T00:37:48.149Z,4.70
2018-01-25T00:40:15.608Z,4.70
2018-01-25T00:42:43.044Z,4.70
2018-01-25T00:45:11.268Z,4.70
2018-01-25T00:47:38.707Z,4.60
2018-01-25T00:50:06.162Z,4.60
2018-01-25T00:52:33.604Z,4.50
2018-01-25T00:55:01.064Z,4.50
2018-01-25T00:57:28.507Z,4.40
2018-01-25T00:59:55.951Z,4.40
2018-01-25T01:02:24.164Z,4.40
2018-01-25T01:04:51.617Z,4.40
2018-01-25T01:07:19.067Z,4.30
2018-01-25T01:09:46.508Z,4.30
2018-01-25T01:12:13.966Z,4.30
2018-01-25T01:14:42.173Z,4.40
2018-01-25T01:17:09.620Z,4.40
2018-01-25T01:19:37.069Z,4.60
2018-01-25T01:22:04.515Z,4.90
2018-01-25T01:24:31.960Z,5.00
2018-01-25T01:26:59.416Z,5.00
2018-01-25T01:29:27.623Z,5.00
2018-01-25T01:31:55.080Z,5.10
2018-01-25T01:34:22.527Z,5.10
2018-01-25T01:36:49.976Z,5.00
2018-01-25T01:39:17.422Z,5.00
2018-01-25T01:41:44.863Z,4.90
2018-01-25T01:44:13.070Z,4.90
2018-01-25T01:46:40.516Z,4.90
2018-01-25T01:49:07.957Z,4.80
2018-01-25T01:51:36.165Z,4.90
2018-01-25T01:54:03.823Z,5.00
2018-01-25T01:56:31.268Z,5.00
2018-01-25T01:58:58.723Z,4.90
2018-01-25T02:01:26.164Z,5.00
2018-01-25T02:03:53.612Z,5.10
2018-01-25T02:06:21.832Z,5.10
2018-01-25T02:08:49.295Z,5.00
2018-01-25T02:11:16.744Z,5.00
2018-01-25T02:13:44.200Z,5.10
2018-01-25T02:16:11.647Z,5.20
2018-01-25T02:18:39.091Z,5.20
2018-01-25T02:21:06.536Z,5.20
2018-01-25T02:23:33.979Z,5.30
2018-01-25T02:26:02.197Z,5.10
2018-01-25T02:28:29.639Z,5.10
2018-01-25T02:30:57.084Z,5.00
2018-01-25T02:33:24.653Z,4.90
2018-01-25T02:35:52.230Z,4.80
2018-01-25T02:38:19.669Z,4.80
2018-01-25T02:40:47.122Z,4.80
2018-01-25T02:43:14.564Z,4.80
2018-01-25T02:45:42.013Z,4.80
2018-01-25T02:48:09.452Z,4.90
2018-01-25T02:50:37.668Z,4.90
2018-01-25T02:53:05.117Z,4.90
2018-01-25T02:55:32.564Z,4.80
2018-01-25T02:58:00.009Z,4.80
2018-01-25T03:00:28.228Z,4.80
2018-01-25T03:02:55.675Z,4.70
2018-01-25T03:05:23.324Z,4.80
2018-01-25T03:07:50.773Z,4.80
2018-01-25T03:10:18.229Z,4.80
2018-01-25T03:12:45.671Z,4.70
2018-01-25T03:15:13.120Z,4.60
2018-01-25T03:17:41.335Z,4.50
2018-01-25T03:20:08.787Z,4.50
2018-01-25T03:22:36.222Z,4.50
2018-01-25T03:25:03.671Z,4.40
2018-01-25T03:27:31.119Z,4.40
2018-01-25T03:29:59.339Z,4.60
2018-01-25T03:32:27.556Z,4.50
2018-01-25T03:34:55.776Z,4.50
2018-01-25T03:37:23.216Z,4.50
2018-01-25T03:39:50.664Z,4.80
2018-01-25T03:42:18.104Z,5.00
2018-01-25T03:44:46.310Z,5.00
2018-01-25T03:47:13.764Z,5.00
2018-01-25T03:49:41.207Z,5.00
2018-01-25T03:52:08.664Z,4.90
2018-01-25T03:54:36.116Z,4.90
2018-01-25T03:57:03.563Z,4.90
2018-01-25T03:59:31.771Z,4.90
2018-01-25T04:01:59.226Z,4.90
2018-01-25T04:04:26.674Z,4.90
2018-01-25T04:06:54.123Z,5.00
2018-01-25T04:09:21.569Z,5.00
2018-01-25T04:11:49.016Z,5.10
2018-01-25T04:14:17.530Z,5.20
2018-01-25T04:16:44.968Z,5.20
2018-01-25T04:19:12.415Z,5.30
2018-01-25T04:21:39.865Z,5.30
2018-01-25T04:24:08.080Z,5.40
2018-01-25T04:26:35.567Z,5.40
2018-01-25T04:29:03.008Z,5.50
2018-01-25T04:31:31.220Z,5.50
2018-01-25T04:33:59.435Z,5.50
2018-01-25T04:36:26.888Z,5.50
2018-01-25T04:38:54.336Z,5.50
2018-01-25T04:41:21.799Z,5.50
2018-01-25T04:43:49.239Z,5.50
2018-01-25T04:46:16.685Z,5.50
2018-01-25T04:48:44.895Z,5.50
2018-01-25T04:51:12.344Z,5.50
2018-01-25T04:53:39.797Z,5.50
2018-01-25T04:56:07.257Z,5.40
2018-01-25T04:58:34.695Z,5.40
2018-01-25T05:01:02.147Z,5.40
2018-01-25T05:03:29.608Z,5.30
2018-01-25T05:05:57.059Z,5.30
2018-01-25T05:08:24.525Z,5.20
2018-01-25T05:10:51.973Z,5.20
2018-01-25T05:13:19.432Z,5.20
2018-01-25T05:15:46.885Z,5.20
2018-01-25T05:18:14.349Z,5.30
2018-01-25T05:20:41.784Z,5.30
2018-01-25T05:23:09.991Z,5.40
2018-01-25T05:25:37.445Z,5.40
2018-01-25T05:28:04.900Z,5.40
2018-01-25T05:30:32.349Z,5.50
2018-01-25T05:32:59.787Z,5.50
2018-01-25T05:35:28.000Z,5.60
2018-01-25T05:37:55.447Z,5.60
2018-01-25T05:40:23.008Z,5.60
2018-01-25T05:42:50.592Z,5.70
2018-01-25T05:45:18.122Z,5.70
2018-01-25T05:47:45.585Z,5.70
2018-01-25T05:50:13.132Z,5.80
2018-01-25T05:52:40.710Z,5.80
2018-01-25T05:55:08.188Z,5.80
2018-01-25T05:57:35.631Z,5.80
2018-01-25T06:00:03.198Z,5.80
2018-01-25T06:02:31.521Z,5.90
2018-01-25T06:04:59.765Z,5.90
2018-01-25T06:07:27.227Z,5.80
2018-01-25T06:09:54.681Z,5.90
2018-01-25T06:12:22.128Z,5.90
2018-01-25T06:14:49.596Z,5.90
2018-01-25T06:17:17.893Z,5.90
2018-01-25T06:19:46.111Z,6.00
2018-01-25T06:22:13.586Z,6.00
2018-01-25T06:24:41.036Z,6.10
2018-01-25T06:27:08.484Z,6.10
2018-01-25T06:29:35.936Z,6.20
2018-01-25T06:32:03.375Z,6.20
2018-01-25T06:34:30.836Z,6.20
2018-01-25T06:36:58.281Z,6.30
2018-01-25T06:39:25.733Z,6.30
2018-01-25T06:41:53.188Z,6.30
2018-01-25T06:44:20.635Z,6.20
2018-01-25T06:46:48.097Z,6.20
2018-01-25T06:49:15.540Z,6.20
2018-01-25T06:51:43.767Z,6.20
2018-01-25T06:54:11.219Z,6.20
2018-01-25T06:56:38.677Z,6.20
2018-01-25T06:59:06.119Z,6.20
2018-01-25T07:01:33.576Z,6.20
2018-01-25T07:04:01.040Z,6.20
2018-01-25T07:06:28.504Z,6.20
2018-01-25T07:08:55.951Z,6.20
2018-01-25T07:11:23.400Z,6.30
2018-01-25T07:13:50.847Z,6.30
2018-01-25T07:16:18.296Z,6.30
2018-01-25T07:18:45.754Z,6.30
2018-01-25T07:21:13.189Z,6.30
2018-01-25T07:23:41.400Z,6.30
2018-01-25T07:26:08.844Z,6.30
2018-01-25T07:28:36.288Z,6.30
2018-01-25T07:31:03.738Z,6.30
2018-01-25T07:33:31.943Z,6.40
2018-01-25T07:35:59.393Z,6.40
2018-01-25T07:38:26.848Z,6.40
2018-01-25T07:40:54.292Z,6.40
2018-01-25T07:43:21.739Z,6.50
2018-01-25T07:45:49.196Z,6.50
2018-01-25T07:48:16.668Z,6.60
2018-01-25T07:50:44.337Z,6.60
2018-01-25T07:53:12.057Z,6.60
2018-01-25T07:55:40.275Z,6.60
2018-01-25T07:58:22.576Z,6.70
2018-01-25T08:00:50.033Z,6.70
2018-01-25T08:03:17.488Z,6.70
2018-01-25T08:05:44.939Z,6.80
2018-01-25T08:08:12.390Z,6.80
2018-01-25T08:10:39.863Z,6.80
2018-01-25T08:13:13.872Z,6.90
2018-01-25T08:15:41.324Z,6.90
2018-01-25T08:18:08.773Z,6.90
2018-01-25T08:20:36.224Z,7.00
2018-01-25T08:23:03.692Z,7.00
2018-01-25T08:25:31.133Z,7.00
2018-01-25T08:27:58.580Z,7.10
2018-01-25T08:30:26.038Z,7.10
2018-01-25T08:32:53.487Z,7.20
2018-01-25T08:35:21.692Z,7.30
2018-01-25T08:37:49.144Z,7.30
2018-01-25T08:40:16.588Z,7.40
2018-01-25T08:42:44.040Z,7.40
2018-01-25T08:45:11.484Z,7.50
2018-01-25T08:47:39.707Z,7.60
2018-01-25T08:50:07.916Z,7.70
2018-01-25T08:52:35.371Z,7.70
2018-01-25T08:55:02.847Z,7.80
2018-01-25T08:57:31.064Z,7.80
2018-01-25T08:59:58.523Z,7.90
2018-01-25T09:02:26.467Z,8.00
2018-01-25T09:04:53.912Z,8.20
2018-01-25T09:07:21.363Z,8.30
2018-01-25T09:09:48.815Z,8.50
2018-01-25T09:12:17.032Z,8.60
2018-01-25T09:14:44.480Z,8.70
2018-01-25T09:17:11.939Z,8.80
2018-01-25T09:19:39.388Z,8.90
2018-01-25T09:22:06.853Z,8.90
2018-01-25T09:24:34.301Z,9.00
2018-01-25T09:27:01.760Z,9.10
2018-01-25T09:29:29.216Z,9.20
2018-01-25T09:31:56.672Z,9.20
2018-01-25T09:34:24.115Z,9.30
2018-01-25T09:36:51.587Z,9.40
2018-01-25T09:39:19.045Z,9.50
2018-01-25T09:41:46.496Z,9.60
2018-01-25T09:44:13.948Z,9.60
2018-01-25T09:46:41.392Z,9.70
2018-01-25T09:49:08.835Z,9.90
2018-01-25T09:51:36.324Z,10.30
2018-01-25T09:54:03.752Z,10.80
2018-01-25T09:56:31.196Z,11.40
2018-01-25T09:58:59.416Z,12.00
2018-01-25T10:01:26.867Z,12.00
2018-01-25T10:03:54.325Z,11.90
2018-01-25T10:06:21.771Z,12.00
2018-01-25T10:08:49.230Z,12.00
2018-01-25T10:11:16.696Z,12.10
2018-01-25T10:13:44.141Z,11.80
2018-01-25T10:16:11.595Z,11.60
2018-01-25T10:18:39.056Z,11.10
2018-01-25T10:21:06.558Z,10.80
2018-01-25T10:23:33.980Z,10.60
2018-01-25T10:26:01.429Z,10.30
2018-01-25T10:28:28.893Z,10.30
2018-01-25T10:30:56.348Z,10.30
2018-01-25T10:33:23.803Z,10.20
2018-01-25T10:35:51.256Z,10.20
2018-01-25T10:38:18.717Z,10.20
2018-01-25T10:40:46.164Z,10.20
2018-01-25T10:43:13.627Z,10.30
2018-01-25T10:45:41.079Z,10.30
2018-01-25T10:48:08.552Z,10.40
2018-01-25T10:50:36.004Z,10.30
2018-01-25T10:53:03.464Z,10.20
2018-01-25T10:55:30.916Z,10.30
2018-01-25T10:57:58.376Z,10.30
2018-01-25T11:00:25.822Z,10.30
2018-01-25T11:02:53.280Z,10.20
2018-01-25T11:05:20.742Z,10.20
2018-01-25T11:07:48.204Z,10.10
2018-01-25T11:10:15.657Z,10.20
2018-01-25T11:12:43.112Z,10.20
2018-01-25T11:15:10.565Z,10.40
2018-01-25T11:17:38.028Z,10.60
2018-01-25T11:20:05.480Z,10.70
2018-01-25T11:22:32.940Z,10.80
2018-01-25T11:25:00.396Z,10.90
2018-01-25T11:27:27.852Z,11.10
2018-01-25T11:29:55.300Z,11.10
2018-01-25T11:32:22.755Z,11.10
2018-01-25T11:34:50.207Z,11.30
2018-01-25T11:37:17.656Z,11.50
2018-01-25T11:39:45.100Z,11.70
2018-01-25T11:42:12.556Z,12.00
2018-01-25T11:44:40.016Z,12.30
2018-01-25T11:47:07.474Z,12.20
2018-01-25T11:49:34.928Z,12.40
2018-01-25T11:52:02.376Z,12.20
2018-01-25T11:54:29.828Z,12.20
2018-01-25T11:56:57.280Z,11.80
2018-01-25T11:59:24.732Z,11.70
2018-01-25T12:01:52.956Z,11.50
2018-01-25T12:04:20.420Z,11.40
2018-01-25T12:06:47.867Z,11.30
2018-01-25T12:09:15.320Z,11.20
2018-01-25T12:11:42.771Z,11.20
2018-01-25T12:14:10.236Z,11.00
2018-01-25T12:16:37.686Z,11.10
2018-01-25T12:19:05.141Z,11.10
2018-01-25T12:21:32.596Z,11.30
2018-01-25T12:24:00.052Z,11.20
2018-01-25T12:26:27.504Z,11.30
2018-01-25T12:28:54.958Z,11.30
2018-01-25T12:31:22.416Z,11.50
2018-01-25T12:33:49.867Z,11.50
2018-01-25T12:36:17.316Z,11.50
2018-01-25T12:38:44.785Z,11.40
2018-01-25T12:41:12.237Z,11.40
2018-01-25T12:43:39.687Z,11.40
2018-01-25T12:46:07.140Z,11.40
2018-01-25T12:48:34.597Z,11.40
2018-01-25T12:51:02.067Z,11.40
2018-01-25T12:53:29.528Z,11.40
2018-01-25T12:55:56.987Z,11.40
2018-01-25T12:58:24.448Z,11.30
2018-01-25T13:00:51.904Z,11.30
2018-01-25T13:03:19.359Z,11.30
2018-01-25T13:05:46.828Z,11.30
2018-01-25T13:08:14.349Z,11.30
2018-01-25T13:10:41.795Z,11.20
2018-01-25T13:13:09.248Z,11.30
2018-01-25T13:15:36.699Z,11.30
2018-01-25T13:18:04.159Z,11.20
2018-01-25T13:20:31.639Z,11.20
2018-01-25T13:22:59.104Z,11.10
2018-01-25T13:25:26.556Z,11.10
2018-01-25T13:27:54.020Z,11.20
2018-01-25T13:30:21.472Z,11.10
2018-01-25T13:35:48.090Z,11.10
2018-01-25T13:38:15.574Z,11.00
2018-01-25T13:40:43.033Z,11.00
2018-01-25T13:43:10.494Z,11.00
2018-01-25T13:45:38.714Z,10.90
2018-01-25T13:48:06.227Z,10.90
2018-01-25T13:50:33.700Z,10.90
2018-01-25T13:53:01.175Z,10.90
2018-01-25T13:55:28.637Z,10.90
2018-01-25T13:57:56.094Z,10.90
2018-01-25T14:00:24.333Z,10.90
2018-01-25T14:02:51.829Z,10.90
2018-01-25T14:05:20.029Z,10.90
2018-01-25T14:07:47.522Z,10.80
2018-01-25T14:10:14.974Z,10.80
2018-01-25T14:12:42.457Z,10.80
2018-01-25T14:15:09.945Z,10.80
2018-01-25T14:17:37.406Z,10.90
2018-01-25T14:20:04.910Z,10.80
2018-01-25T14:22:32.369Z,10.80
2018-01-25T14:24:59.874Z,10.70
2018-01-25T14:27:27.330Z,10.70
2018-01-25T14:29:54.786Z,10.70
2018-01-25T14:32:23.024Z,10.70
2018-01-25T14:34:50.657Z,10.70
2018-01-25T14:37:18.937Z,10.70
2018-01-25T14:39:46.424Z,10.70
2018-01-25T14:42:13.891Z,10.70
2018-01-25T14:44:41.342Z,10.70
2018-01-25T14:47:08.815Z,10.60
2018-01-25T14:49:36.333Z,10.60
2018-01-25T14:52:03.805Z,10.60
2018-01-25T14:54:31.257Z,10.60
2018-01-25T14:56:58.715Z,10.60
2018-01-25T14:59:26.177Z,10.60
2018-01-25T15:01:53.672Z,10.50
2018-01-25T15:04:21.147Z,10.50
2018-01-25T15:06:48.614Z,10.40
2018-01-25T15:09:16.112Z,10.40
2018-01-25T15:11:44.638Z,10.40
2018-01-25T15:14:13.364Z,10.40
2018-01-25T15:16:40.835Z,10.40
2018-01-25T15:19:09.133Z,10.30
2018-01-25T15:21:37.396Z,10.20
2018-01-25T15:24:04.882Z,10.30
2018-01-25T15:26:32.339Z,10.20
2018-01-25T15:28:59.833Z,10.20
2018-01-25T15:31:27.303Z,10.20
2018-01-25T15:33:54.766Z,10.10
2018-01-25T15:36:27.549Z,10.10
2018-01-25T15:38:55.527Z,10.10
2018-01-25T15:41:23.116Z,10.00
2018-01-25T15:43:50.732Z,10.00
2018-01-25T15:46:18.069Z,10.00
2018-01-25T15:48:45.539Z,10.00
2018-01-25T15:51:12.993Z,10.00
2018-01-25T15:53:40.475Z,10.00
2018-01-25T15:56:07.948Z,9.90
2018-01-25T15:58:36.552Z,9.90
2018-01-25T16:01:04.806Z,9.90
2018-01-25T16:03:32.271Z,9.90
2018-01-25T16:05:59.781Z,9.90
2018-01-25T16:08:27.251Z,9.80
2018-01-25T16:10:54.774Z,9.70
2018-01-25T16:13:22.427Z,9.80
2018-01-25T16:15:49.898Z,9.70
2018-01-25T16:18:17.368Z,9.70
2018-01-25T16:20:44.856Z,9.60
2018-01-25T16:23:12.875Z,9.60
2018-01-25T16:25:40.332Z,9.50
2018-01-25T16:28:07.800Z,9.50
2018-01-25T16:30:35.328Z,9.40
2018-01-25T16:33:02.801Z,9.30
2018-01-25T16:35:30.288Z,9.30
2018-01-25T16:37:57.746Z,9.20
2018-01-25T16:40:25.254Z,9.10
2018-01-25T16:42:52.742Z,9.10
2018-01-25T16:45:20.332Z,9.00
2018-01-25T16:47:47.809Z,8.90
2018-01-25T16:50:15.285Z,8.90
2018-01-25T16:52:43.336Z,8.80
2018-01-25T16:55:11.597Z,8.70
2018-01-25T16:57:39.315Z,8.70
2018-01-25T17:00:07.573Z,8.60
2018-01-25T17:02:35.040Z,8.50
2018-01-25T17:05:02.551Z,8.50
2018-01-25T17:07:30.007Z,8.40
2018-01-25T17:09:57.532Z,8.40
2018-01-25T17:12:24.988Z,8.40
2018-01-25T17:14:52.459Z,8.30
2018-01-25T17:17:19.967Z,8.30
2018-01-25T17:19:47.427Z,8.30
2018-01-25T17:22:14.948Z,8.20
2018-01-25T17:24:43.055Z,8.00
2018-01-25T17:27:10.530Z,7.90
2018-01-25T17:29:38.004Z,7.80
2018-01-25T17:32:05.482Z,7.70
2018-01-25T17:34:32.970Z,7.60
2018-01-25T17:37:00.499Z,7.50
2018-01-25T17:39:28.803Z,7.40
2018-01-25T17:41:57.027Z,7.40
2018-01-25T17:44:24.548Z,7.40
2018-01-25T17:46:52.064Z,7.40
2018-01-25T17:49:20.386Z,7.40
2018-01-25T17:51:47.967Z,7.40
2018-01-25T17:54:15.872Z,7.40
2018-01-25T17:56:43.901Z,7.40
2018-01-25T17:59:11.468Z,7.30
2018-01-25T18:01:38.990Z,7.30
2018-01-25T18:04:06.562Z,7.30
2018-01-25T18:06:34.137Z,7.40
2018-01-25T18:09:01.871Z,7.50
2018-01-25T18:11:31.152Z,7.50
2018-01-25T18:13:58.699Z,7.50
2018-01-25T18:16:26.218Z,7.50
2018-01-25T18:18:53.739Z,7.50
2018-01-25T18:21:22.064Z,7.40
2018-01-25T18:23:50.298Z,7.40
2018-01-25T18:26:17.795Z,7.40
2018-01-25T18:28:45.372Z,7.40
2018-01-25T18:31:13.284Z,7.40
2018-01-25T18:33:40.815Z,7.30
2018-01-25T18:36:08.437Z,7.30
2018-01-25T18:38:35.914Z,7.30
2018-01-25T18:41:03.550Z,7.20
2018-01-25T18:43:32.160Z,7.30
2018-01-25T18:45:59.709Z,7.30
2018-01-25T18:48:27.285Z,7.40
2018-01-25T18:50:54.744Z,7.50
2018-01-25T18:53:22.253Z,7.60
2018-01-25T18:55:49.779Z,7.60
2018-01-25T18:58:18.015Z,7.60
2018-01-25T19:00:45.529Z,7.60
2018-01-25T19:03:13.254Z,7.60
2018-01-25T19:05:40.961Z,7.50
2018-01-25T19:08:08.679Z,7.50
2018-01-25T19:10:36.287Z,7.50
2018-01-25T19:13:04.829Z,7.40
2018-01-25T19:15:32.505Z,7.40
2018-01-25T19:18:00.094Z,7.40
2018-01-25T19:20:27.630Z,7.30
2018-01-25T19:22:55.127Z,7.30
2018-01-25T19:25:24.181Z,7.00
2018-01-25T19:27:52.746Z,7.00
2018-01-25T19:30:20.615Z,7.00
2018-01-25T19:32:48.143Z,6.80
2018-01-25T19:35:15.657Z,6.70
2018-01-25T19:37:43.219Z,6.60
2018-01-25T19:40:11.533Z,6.30
2018-01-25T19:42:39.770Z,6.20
2018-01-25T19:45:07.325Z,6.20
2018-01-25T19:47:34.801Z,6.10
2018-01-25T19:50:03.053Z,6.00
2018-01-25T19:52:30.595Z,6.00
2018-01-25T19:54:58.052Z,5.90
2018-01-25T19:57:25.654Z,5.80
2018-01-25T19:59:53.937Z,5.80
2018-01-25T20:02:21.498Z,5.80
2018-01-25T20:04:49.048Z,5.70
2018-01-25T20:07:16.556Z,5.60
2018-01-25T20:09:44.980Z,5.60
2018-01-25T20:12:13.070Z,5.50
2018-01-25T20:14:40.618Z,5.50
2018-01-25T20:17:08.135Z,5.40
2018-01-25T20:19:35.928Z,5.40
2018-01-25T20:22:04.284Z,5.40
2018-01-25T20:24:31.871Z,5.50
2018-01-25T20:27:00.193Z,5.50
2018-01-25T20:29:27.727Z,5.40
2018-01-25T20:31:55.242Z,5.50
2018-01-25T20:34:22.814Z,5.50
2018-01-25T20:36:51.039Z,5.50
2018-01-25T20:39:18.602Z,5.50
2018-01-25T20:41:46.863Z,5.50
2018-01-25T20:44:14.390Z,5.50
2018-01-25T20:46:42.201Z,5.50
2018-01-25T20:49:09.730Z,5.60
2018-01-25T20:51:38.764Z,5.50
2018-01-25T20:54:07.098Z,5.50
2018-01-25T20:56:34.619Z,5.50
2018-01-25T20:59:02.158Z,5.50
2018-01-25T21:01:29.685Z,5.60
2018-01-25T21:03:57.226Z,5.60
2018-01-25T21:06:24.826Z,5.60
2018-01-25T21:08:52.348Z,5.60
2018-01-25T21:11:19.881Z,5.60
2018-01-25T21:13:47.364Z,5.70
2018-01-25T21:16:14.949Z,5.70
2018-01-25T21:18:42.962Z,5.80
2018-01-25T21:21:10.440Z,5.80
2018-01-25T21:23:37.989Z,5.90
2018-01-25T21:26:06.282Z,5.90
2018-01-25T21:28:33.806Z,5.80
2018-01-25T21:31:01.320Z,5.90
2018-01-25T21:33:29.516Z,5.90
2018-01-25T21:35:57.045Z,5.90
2018-01-25T21:38:25.275Z,5.90
2018-01-25T21:40:52.816Z,5.90
2018-01-25T21:43:20.421Z,5.90
2018-01-25T21:45:48.749Z,5.90
2018-01-25T21:48:16.322Z,6.00
2018-01-25T21:50:44.525Z,5.90
2018-01-25T21:53:12.113Z,6.00
2018-01-25T21:55:39.713Z,6.00
2018-01-25T21:58:07.224Z,6.10
2018-01-25T22:00:34.753Z,6.10
2018-01-25T22:03:02.989Z,6.10
2018-01-25T22:05:30.511Z,6.00
2018-01-25T22:07:58.025Z,6.00
2018-01-25T22:10:25.569Z,6.00
2018-01-25T22:12:53.155Z,5.90
2018-01-25T22:15:20.630Z,5.90
2018-01-25T22:17:48.155Z,5.90
2018-01-25T22:20:16.482Z,5.90
2018-01-25T22:22:44.773Z,5.90
2018-01-25T22:25:13.069Z,6.00
2018-01-25T22:27:41.405Z,6.00
2018-01-25T22:30:09.006Z,6.00
2018-01-25T22:32:36.584Z,6.00
2018-01-25T22:35:04.109Z,6.10
2018-01-25T22:37:32.439Z,6.10
2018-01-25T22:39:59.988Z,6.10
2018-01-25T22:42:27.532Z,6.20
2018-01-25T22:44:55.096Z,6.20
2018-01-25T22:47:22.691Z,6.20
2018-01-25T22:49:50.361Z,6.20
2018-01-25T22:52:18.673Z,6.20
2018-01-25T22:54:46.266Z,6.20
2018-01-25T22:57:14.348Z,6.30
2018-01-25T22:59:42.253Z,6.30
2018-01-25T23:02:09.772Z,6.30
2018-01-25T23:04:37.306Z,6.30
2018-01-25T23:07:04.888Z,6.30
2018-01-25T23:09:33.164Z,6.40
2018-01-25T23:12:00.682Z,6.40
2018-01-25T23:14:28.224Z,6.30
2018-01-25T23:16:55.767Z,6.30
2018-01-25T23:19:23.241Z,6.30
2018-01-25T23:21:50.929Z,6.30
2018-01-25T23:24:18.549Z,6.30
2018-01-25T23:26:46.014Z,6.30
2018-01-25T23:29:14.236Z,6.30
2018-01-25T23:31:41.715Z,6.30
2018-01-25T23:34:09.206Z,6.40
2018-01-25T23:36:36.712Z,6.30
2018-01-25T23:39:04.196Z,6.40
2018-01-25T23:41:31.661Z,6.40
2018-01-25T23:43:59.239Z,6.40
2018-01-25T23:46:26.712Z,6.40
2018-01-25T23:48:54.199Z,6.30
2018-01-25T23:51:21.672Z,6.30
2018-01-25T23:53:49.142Z,6.40
2018-01-25T23:56:16.623Z,6.30
2018-01-25T23:58:44.130Z,6.40
